ADDS TAF Board (Experimental) INFO Settings
IDs:

KMCI - Kansas City Intl, MO, US

Issued at 1729 UTC 25 Jul 2016
Updated at: 2011 UTC 25 Jul 2016
Time1953Z 25/21Z 25/22Z 25/23Z 26/00Z 26/01Z 26/02Z 26/03Z 26/04Z 26/05Z 26/06Z 26/07Z 26/08Z 26/09Z
Type OBS PRVL PRVL PRVL PRVL PRVL PRVL PRVL PRVL PRVL PRVL PRVL PRVL PRVL
VIS 10 >6 >6 >6 >6 >6 >6 >6 >6 >6 >6 >6 >6 >6
CIG 130 150 150 150 150 150 -- -- -- -- -- -- -- --
Cover BKN OVC OVC OVC OVC OVC FEW FEW FEW FEW FEW FEW FEW FEW
FltCat VFR VFR VFR VFR VFR VFR VFR VFR VFR VFR VFR VFR VFR VFR
WX -- -- -- -- -- -- -- -- -- -- -- -- -- --
WDir 50 VRB VRB VRB VRB VRB 70 70 70 70 70 70 70 70
WSpd 10 4 4 4 4 4 4 4 4 4 4 4 4 4
WGst -- -- -- -- -- -- -- -- -- -- -- -- -- --
R01/19
XWnd -6 VRB VRB VRB VRB VRB -3 -3 -3 -3 -3 -3 -3 -3
HWnd 8 VRB VRB VRB VRB VRB 2 2 2 2 2 2 2 2
R09/27
XWnd 7 VRB VRB VRB VRB VRB 2 2 2 2 2 2 2 2
HWnd 7 VRB VRB VRB VRB VRB 4 4 4 4 4 4 4 4

NOTE: TEMPO conditions in [brackets]. Keep in mind TEMPO conditions might be better (lower impact) than prevailing conditions.

Raw TAF
KMCI 251729Z 2518/2618 VRB04KT P6SM OVC150
  FM260200 07004KT P6SM FEW200


Raw METAR
KMCI 251953Z 05010KT 10SM BKN130 BKN200 28/22 A3003 RMK AO2 SLP158 T02830217
KMCI 251853Z 03010KT 10SM FEW030 SCT130 BKN180 28/22 A3005 RMK AO2 SLP162 T02780217
KMCI 251753Z 01006KT 10SM FEW020 BKN130 OVC170 26/21 A3007 RMK AO2 SLP172 T02610211 10261 20228 58008

METAR Board
Radar Display
Forecast Discussion

TAF Board Legend

Potential Impact
Threat None Slight Moderate High
Visibility (sm) ≥5.1 5.1>X≥3 3>X≥1 <1
Ceiling (100 ft) ≥30.1 30.1>X≥10 10>X≥5 <5
Wind Speed (kt) <10 10≤X<20 20≤X<30 ≥30
Wind Gust (kt) <15 15≤X<25 25≤X<35 ≥35
Weather No Wx Reported VCTS,-TS,-FZRA,SN TS,FZRA +TS,+FZRA,+SN